Time;durP1;ratioP1;P1;durP2;ratioP2;P2;SDS_P1;SDS_P2;PMS_P1;PMS_P2;Temp;Humidity;BMP_temperature;BMP_pressure;BME280_temperature;BME280_humidity;BME280_pressure;Samples;Min_cycle;Max_cycle;Signal;HPM_P1;HPM_P2
2021/11/13 00:02:07;;;;;;;50.35;26.35;;;;;;;;;;5012419;28;20049;-68
2021/11/13 00:04:34;;;;;;;59.58;27.27;;;;;;;;;;5012606;28;20058;-68
2021/11/13 00:07:00;;;;;;;64.18;25.02;;;;;;;;;;5012771;28;20053;-68
2021/11/13 00:09:27;;;;;;;39.40;24.40;;;;;;;;;;5012430;28;20049;-68
2021/11/13 00:11:53;;;;;;;40.75;25.33;;;;;;;;;;5012432;28;20459;-68
2021/11/13 00:14:21;;;;;;;79.88;26.33;;;;;;;;;;5012751;28;20496;-68
2021/11/13 00:16:48;;;;;;;68.32;24.98;;;;;;;;;;5013518;28;20053;-68
2021/11/13 00:19:15;;;;;;;67.78;25.15;;;;;;;;;;5013111;28;20049;-69
2021/11/13 00:21:41;;;;;;;83.40;26.55;;;;;;;;;;5012918;28;20104;-68
2021/11/13 00:24:08;;;;;;;107.22;23.15;;;;;;;;;;5013200;28;20050;-68
2021/11/13 00:26:35;;;;;;;59.05;22.70;;;;;;;;;;4995893;28;20097;-69
2021/11/13 00:29:01;;;;;;;67.97;23.95;;;;;;;;;;5013187;28;20046;-69
2021/11/13 00:31:28;;;;;;;48.47;23.92;;;;;;;;;;5012988;28;20057;-69
2021/11/13 00:33:55;;;;;;;51.67;23.98;;;;;;;;;;5013296;28;20636;-69
2021/11/13 00:36:21;;;;;;;98.72;24.45;;;;;;;;;;5012912;28;20467;-69
2021/11/13 00:38:48;;;;;;;97.78;24.27;;;;;;;;;;5012853;28;20050;-69
2021/11/13 00:41:15;;;;;;;78.15;24.67;;;;;;;;;;5012815;28;20049;-69
2021/11/13 00:43:41;;;;;;;210.77;30.55;;;;;;;;;;5012870;28;20488;-69
2021/11/13 00:46:08;;;;;;;138.75;25.13;;;;;;;;;;5012806;28;20046;-69
2021/11/13 00:48:35;;;;;;;50.25;23.83;;;;;;;;;;5012737;28;20045;-69
2021/11/13 00:51:02;;;;;;;162.73;25.80;;;;;;;;;;5012764;28;20402;-69
2021/11/13 00:53:29;;;;;;;169.85;25.05;;;;;;;;;;5012441;28;20057;-69
2021/11/13 00:55:55;;;;;;;109.40;24.90;;;;;;;;;;5012798;28;20058;-69
2021/11/13 00:58:22;;;;;;;74.57;23.95;;;;;;;;;;5012408;28;20092;-69
2021/11/13 01:00:49;;;;;;;62.75;24.08;;;;;;;;;;5012737;28;20050;-70
2021/11/13 01:03:16;;;;;;;56.10;24.67;;;;;;;;;;5012544;28;20099;-69
2021/11/13 01:05:42;;;;;;;54.55;23.10;;;;;;;;;;5012579;28;20050;-69
2021/11/13 01:08:09;;;;;;;86.30;23.02;;;;;;;;;;5012452;28;20046;-69
2021/11/13 01:10:36;;;;;;;66.90;21.98;;;;;;;;;;5012407;28;20061;-69
2021/11/13 01:13:03;;;;;;;43.42;21.55;;;;;;;;;;5012396;28;20054;-70
2021/11/13 01:15:30;;;;;;;123.78;23.17;;;;;;;;;;5012505;28;20055;-69
2021/11/13 01:17:57;;;;;;;114.53;23.38;;;;;;;;;;5012376;28;20057;-69
2021/11/13 01:20:24;;;;;;;71.47;21.55;;;;;;;;;;5015128;28;20054;-69
2021/11/13 01:22:51;;;;;;;127.10;23.92;;;;;;;;;;5018341;28;20050;-70
2021/11/13 01:25:18;;;;;;;165.02;24.02;;;;;;;;;;5019117;28;20073;-70
2021/11/13 01:27:45;;;;;;;98.60;21.40;;;;;;;;;;5018837;28;20471;-70
2021/11/13 01:30:13;;;;;;;34.67;23.27;;;;;;;;;;5029821;28;20048;-70
2021/11/13 01:32:40;;;;;;;95.20;23.30;;;;;;;;;;5028594;28;20046;-69
2021/11/13 01:35:08;;;;;;;63.50;24.25;;;;;;;;;;5021231;28;20053;-70
2021/11/13 01:37:35;;;;;;;52.17;23.77;;;;;;;;;;5030163;28;20084;-69
2021/11/13 01:40:03;;;;;;;99.90;26.05;;;;;;;;;;5028104;28;20045;-69
2021/11/13 01:42:31;;;;;;;75.50;27.58;;;;;;;;;;5027846;28;20077;-70
2021/11/13 01:44:58;;;;;;;70.97;29.17;;;;;;;;;;5027908;28;20054;-69
2021/11/13 01:47:25;;;;;;;227.55;31.83;;;;;;;;;;5025839;28;20100;-69
2021/11/13 01:49:51;;;;;;;85.45;29.27;;;;;;;;;;5017911;28;20050;-70
2021/11/13 01:52:18;;;;;;;66.18;28.67;;;;;;;;;;5017280;28;20053;-70
2021/11/13 01:54:45;;;;;;;82.85;26.80;;;;;;;;;;5017231;28;20104;-69
2021/11/13 01:57:19;;;;;;;68.07;24.55;;;;;;;;;;5015986;28;20045;-69
2021/11/13 01:59:47;;;;;;;85.88;26.67;;;;;;;;;;5016077;28;20123;-69
2021/11/13 02:02:14;;;;;;;65.40;27.83;;;;;;;;;;5014660;28;20050;-69
2021/11/13 02:04:41;;;;;;;43.72;25.88;;;;;;;;;;5014219;28;20053;-68
2021/11/13 02:07:08;;;;;;;53.53;26.38;;;;;;;;;;5011815;28;20128;-69
2021/11/13 02:09:34;;;;;;;64.35;26.42;;;;;;;;;;5012037;28;20563;-69
2021/11/13 02:12:01;;;;;;;64.13;26.27;;;;;;;;;;5011825;28;20104;-69
2021/11/13 02:14:29;;;;;;;49.95;26.30;;;;;;;;;;5011700;28;20050;-69
2021/11/13 02:16:56;;;;;;;52.78;25.83;;;;;;;;;;5011891;28;20049;-69
2021/11/13 02:19:23;;;;;;;46.60;25.77;;;;;;;;;;5011596;28;20089;-69
2021/11/13 02:21:49;;;;;;;44.95;25.42;;;;;;;;;;5011601;28;20119;-68
2021/11/13 02:24:16;;;;;;;62.30;25.17;;;;;;;;;;5011836;28;20050;-68
2021/11/13 02:26:43;;;;;;;47.13;26.02;;;;;;;;;;5011832;28;20054;-68
2021/11/13 02:29:09;;;;;;;90.47;25.85;;;;;;;;;;5011595;28;20042;-69
2021/11/13 02:31:41;;;;;;;49.20;25.55;;;;;;;;;;5011421;28;20057;-68
2021/11/13 02:34:09;;;;;;;89.45;25.15;;;;;;;;;;5011917;28;20448;-68
2021/11/13 02:36:36;;;;;;;55.55;25.50;;;;;;;;;;5011687;28;20057;-68
2021/11/13 02:39:08;;;;;;;81.68;25.70;;;;;;;;;;5015098;28;20488;-68
2021/11/13 02:41:35;;;;;;;72.43;25.97;;;;;;;;;;5015079;28;20050;-68
2021/11/13 02:44:03;;;;;;;73.55;24.85;;;;;;;;;;5015017;28;20053;-69
2021/11/13 02:46:30;;;;;;;38.33;24.13;;;;;;;;;;5013816;28;20100;-69
2021/11/13 02:48:56;;;;;;;44.58;25.27;;;;;;;;;;5014060;28;20049;-68
2021/11/13 02:51:23;;;;;;;39.92;25.13;;;;;;;;;;5014641;28;20054;-68
2021/11/13 02:53:51;;;;;;;56.67;26.60;;;;;;;;;;5014862;28;20076;-69
2021/11/13 02:56:19;;;;;;;100.07;25.35;;;;;;;;;;5014850;28;20183;-69
2021/11/13 02:58:46;;;;;;;57.33;23.67;;;;;;;;;;5014697;28;20050;-69
2021/11/13 03:01:19;;;;;;;79.32;23.42;;;;;;;;;;5014533;28;20049;-69
2021/11/13 03:03:50;;;;;;;56.50;25.67;;;;;;;;;;5014643;28;20054;-69
2021/11/13 03:06:17;;;;;;;48.13;24.30;;;;;;;;;;5014603;28;20057;-69
2021/11/13 03:08:49;;;;;;;41.92;24.42;;;;;;;;;;5014613;28;20512;-69
2021/11/13 03:11:17;;;;;;;72.13;26.20;;;;;;;;;;5014715;28;20104;-69
2021/11/13 03:13:45;;;;;;;38.83;24.42;;;;;;;;;;5014499;28;20319;-69
2021/11/13 03:16:13;;;;;;;41.35;25.63;;;;;;;;;;5014539;28;20096;-69
2021/11/13 03:18:40;;;;;;;40.47;25.08;;;;;;;;;;5014497;28;20483;-69
2021/11/13 03:21:07;;;;;;;40.88;22.80;;;;;;;;;;5014375;28;20590;-69
2021/11/13 03:23:36;;;;;;;40.47;23.88;;;;;;;;;;5013885;28;20505;-69
2021/11/13 03:26:05;;;;;;;61.53;24.88;;;;;;;;;;5014355;28;20501;-68
2021/11/13 03:28:36;;;;;;;39.53;23.05;;;;;;;;;;5014211;28;20096;-68
2021/11/13 03:31:03;;;;;;;61.05;22.90;;;;;;;;;;5014195;28;20104;-68
2021/11/13 03:33:32;;;;;;;44.25;23.60;;;;;;;;;;5013835;28;20496;-69
2021/11/13 03:35:59;;;;;;;55.08;23.95;;;;;;;;;;5014292;28;20096;-69
2021/11/13 03:38:26;;;;;;;65.25;24.52;;;;;;;;;;5014096;28;20517;-69
2021/11/13 03:40:53;;;;;;;57.42;25.67;;;;;;;;;;5029212;28;20551;-68
2021/11/13 03:43:20;;;;;;;41.80;25.05;;;;;;;;;;5013738;28;20521;-68
2021/11/13 03:45:47;;;;;;;48.42;25.67;;;;;;;;;;5014000;28;20054;-68
2021/11/13 03:48:14;;;;;;;52.20;24.58;;;;;;;;;;5013172;28;20050;-68
2021/11/13 03:50:41;;;;;;;61.13;24.95;;;;;;;;;;5013483;28;20046;-69
2021/11/13 03:53:08;;;;;;;40.17;23.52;;;;;;;;;;5013692;28;20057;-68
2021/11/13 03:55:35;;;;;;;37.97;23.23;;;;;;;;;;5013765;28;20053;-69
2021/11/13 03:58:04;;;;;;;43.83;22.63;;;;;;;;;;5013886;28;20640;-69
2021/11/13 04:00:31;;;;;;;33.65;23.08;;;;;;;;;;5013712;28;20046;-68
2021/11/13 04:02:58;;;;;;;37.63;22.27;;;;;;;;;;5013330;28;20049;-68
2021/11/13 04:05:24;;;;;;;40.22;22.85;;;;;;;;;;5013429;28;20100;-68
2021/11/13 04:07:51;;;;;;;33.20;21.85;;;;;;;;;;5013444;28;20058;-68
2021/11/13 04:10:18;;;;;;;38.10;22.58;;;;;;;;;;5013391;28;20049;-68
2021/11/13 04:12:45;;;;;;;38.10;22.27;;;;;;;;;;5013182;28;20050;-68
2021/11/13 04:15:12;;;;;;;37.70;21.95;;;;;;;;;;5013412;28;20050;-68
2021/11/13 04:17:39;;;;;;;34.33;21.27;;;;;;;;;;5012998;28;20101;-68
2021/11/13 04:20:07;;;;;;;36.67;21.48;;;;;;;;;;5013290;28;20041;-68
2021/11/13 04:22:34;;;;;;;32.95;22.05;;;;;;;;;;5013014;28;20049;-68
2021/11/13 04:25:01;;;;;;;31.17;21.73;;;;;;;;;;5013413;28;20467;-68
2021/11/13 04:27:27;;;;;;;39.15;22.23;;;;;;;;;;5013033;28;20049;-68
2021/11/13 04:29:54;;;;;;;37.35;21.55;;;;;;;;;;5013247;28;20104;-69
2021/11/13 04:32:21;;;;;;;31.95;21.15;;;;;;;;;;5012719;28;20104;-69
2021/11/13 04:37:22;;;;;;;29.13;20.67;;;;;;;;;;5013077;28;20045;-68
2021/11/13 04:39:49;;;;;;;41.78;21.52;;;;;;;;;;5013345;28;20100;-68
2021/11/13 04:42:16;;;;;;;29.17;21.30;;;;;;;;;;5012649;28;20115;-69
2021/11/13 04:44:44;;;;;;;32.80;18.58;;;;;;;;;;5013056;28;20050;-69
2021/11/13 04:47:11;;;;;;;30.38;18.85;;;;;;;;;;5012853;28;20061;-69
2021/11/13 04:49:38;;;;;;;26.38;18.35;;;;;;;;;;5012798;28;20049;-69
2021/11/13 04:52:06;;;;;;;27.02;19.73;;;;;;;;;;5012693;28;20049;-69
2021/11/13 04:54:33;;;;;;;25.42;18.45;;;;;;;;;;5012648;28;20108;-69
2021/11/13 04:57:00;;;;;;;27.85;19.17;;;;;;;;;;5012662;28;20050;-69
2021/11/13 04:59:26;;;;;;;29.40;19.73;;;;;;;;;;5012485;28;20046;-69
2021/11/13 05:01:53;;;;;;;28.40;18.52;;;;;;;;;;5012443;28;20053;-70
2021/11/13 05:04:19;;;;;;;31.90;19.58;;;;;;;;;;5012726;28;20410;-70
2021/11/13 05:06:46;;;;;;;25.00;18.20;;;;;;;;;;5012721;28;20058;-69
2021/11/13 06:09:44;;;;;;;24.05;17.02;;;;;;;;;;4988474;28;20089;-72
2021/11/13 06:12:11;;;;;;;23.95;16.48;;;;;;;;;;4992260;28;20085;-73
2021/11/13 06:14:37;;;;;;;24.67;17.25;;;;;;;;;;4995143;28;20058;-72
2021/11/13 06:17:06;;;;;;;25.35;17.73;;;;;;;;;;4996565;28;20058;-72
2021/11/13 06:19:32;;;;;;;21.83;17.00;;;;;;;;;;4994913;28;20042;-72
2021/11/13 06:21:59;;;;;;;23.60;17.23;;;;;;;;;;4994706;28;20113;-72
2021/11/13 06:24:25;;;;;;;25.05;18.15;;;;;;;;;;4996084;28;20105;-72
2021/11/13 06:26:53;;;;;;;25.50;17.88;;;;;;;;;;4996144;28;20512;-72
2021/11/13 06:29:20;;;;;;;25.35;17.48;;;;;;;;;;4996150;28;20100;-72
2021/11/13 06:31:46;;;;;;;22.92;16.85;;;;;;;;;;4995754;28;20054;-72
2021/11/13 06:34:13;;;;;;;23.10;16.35;;;;;;;;;;4995904;28;20100;-72
2021/11/13 06:36:40;;;;;;;21.15;16.88;;;;;;;;;;4995777;28;20058;-72
2021/11/13 06:39:06;;;;;;;23.08;16.90;;;;;;;;;;4995744;28;20054;-73
2021/11/13 06:41:33;;;;;;;23.52;16.40;;;;;;;;;;4994594;28;20056;-73
2021/11/13 06:44:00;;;;;;;23.27;16.30;;;;;;;;;;4995881;28;20108;-74
2021/11/13 06:46:27;;;;;;;19.63;15.32;;;;;;;;;;4994476;28;20497;-74
2021/11/13 06:48:54;;;;;;;20.48;14.90;;;;;;;;;;4994552;28;20125;-72
2021/11/13 06:51:21;;;;;;;21.85;16.20;;;;;;;;;;4995585;28;20046;-73
2021/11/13 06:53:48;;;;;;;20.65;15.43;;;;;;;;;;4994159;28;20098;-75
2021/11/13 06:56:17;;;;;;;18.80;15.00;;;;;;;;;;4978250;28;20493;-72
2021/11/13 06:58:44;;;;;;;19.33;15.52;;;;;;;;;;4994026;28;20064;-72
2021/11/13 07:01:10;;;;;;;20.67;14.73;;;;;;;;;;4994082;28;20054;-72
2021/11/13 07:03:37;;;;;;;19.02;14.57;;;;;;;;;;5011849;28;20512;-73
2021/11/13 07:06:04;;;;;;;21.30;15.68;;;;;;;;;;5015073;28;20049;-72
2021/11/13 07:21:40;;;;;;;26.25;20.23;;;;;;;;;;5031929;28;20061;-72
2021/11/13 07:24:10;;;;;;;34.15;21.00;;;;;;;;;;5033229;28;20061;-72
2021/11/13 07:26:37;;;;;;;23.88;18.10;;;;;;;;;;5033977;28;20511;-73
2021/11/13 07:29:06;;;;;;;21.77;17.23;;;;;;;;;;5034338;28;20049;-74
2021/11/13 07:31:33;;;;;;;19.88;15.65;;;;;;;;;;5032724;28;20046;-72
2021/11/13 07:34:00;;;;;;;18.88;15.60;;;;;;;;;;5032997;28;20053;-72
2021/11/13 07:36:27;;;;;;;19.10;15.20;;;;;;;;;;5034171;28;20081;-72
2021/11/13 07:38:54;;;;;;;19.70;15.02;;;;;;;;;;5034105;28;20486;-72
2021/11/13 07:41:22;;;;;;;20.15;14.73;;;;;;;;;;5033707;28;20045;-71
2021/11/13 07:43:50;;;;;;;19.05;14.40;;;;;;;;;;5033749;28;20049;-71
2021/11/13 07:46:17;;;;;;;18.63;14.70;;;;;;;;;;5033922;28;20413;-71
2021/11/13 07:48:44;;;;;;;17.95;15.02;;;;;;;;;;5033755;28;20053;-73
2021/11/13 07:51:16;;;;;;;16.65;13.20;;;;;;;;;;5048263;28;20042;-72
2021/11/13 07:53:43;;;;;;;19.77;13.90;;;;;;;;;;5016939;28;20053;-71
2021/11/13 07:56:09;;;;;;;18.25;15.07;;;;;;;;;;5013856;28;20058;-71
2021/11/13 07:58:36;;;;;;;18.52;13.60;;;;;;;;;;5013691;28;20050;-72
2021/11/13 08:01:03;;;;;;;16.15;14.00;;;;;;;;;;5028899;28;20053;-71
2021/11/13 08:03:29;;;;;;;21.75;14.70;;;;;;;;;;5028707;28;20632;-71
2021/11/13 08:05:56;;;;;;;17.33;13.30;;;;;;;;;;5033503;28;20049;-70
2021/11/13 08:08:23;;;;;;;20.05;15.18;;;;;;;;;;5032106;28;20057;-71
2021/11/13 08:10:50;;;;;;;19.92;15.52;;;;;;;;;;5033559;28;20104;-70
2021/11/13 08:13:18;;;;;;;17.90;13.75;;;;;;;;;;5033361;28;20122;-70
2021/11/13 08:15:46;;;;;;;16.90;12.98;;;;;;;;;;5019203;28;20051;-69
2021/11/13 08:18:13;;;;;;;14.70;10.80;;;;;;;;;;5013379;28;20115;-69
2021/11/13 08:20:40;;;;;;;14.70;10.55;;;;;;;;;;5013230;28;20089;-69
2021/11/13 08:23:09;;;;;;;14.13;11.40;;;;;;;;;;5013107;28;20108;-70
2021/11/13 08:25:38;;;;;;;17.08;10.63;;;;;;;;;;5012199;28;20057;-70
2021/11/13 08:28:05;;;;;;;14.32;10.50;;;;;;;;;;5013139;28;20050;-70
2021/11/13 08:30:33;;;;;;;12.57;9.55;;;;;;;;;;5012056;28;20189;-71
2021/11/13 08:33:00;;;;;;;12.80;10.10;;;;;;;;;;5013137;28;20061;-70
2021/11/13 08:35:26;;;;;;;15.55;10.15;;;;;;;;;;5012571;28;20100;-71
2021/11/13 08:37:53;;;;;;;13.45;9.88;;;;;;;;;;5012995;28;20501;-70
2021/11/13 08:40:20;;;;;;;12.80;9.60;;;;;;;;;;5012668;28;20046;-71
2021/11/13 08:42:46;;;;;;;12.40;9.90;;;;;;;;;;5012697;28;20050;-71
2021/11/13 08:45:13;;;;;;;12.55;9.63;;;;;;;;;;5012731;28;20053;-70
2021/11/13 08:47:41;;;;;;;12.68;9.88;;;;;;;;;;5012881;28;20050;-71
2021/11/13 08:50:11;;;;;;;11.93;9.82;;;;;;;;;;5012927;28;20085;-71
2021/11/13 08:52:38;;;;;;;14.82;9.80;;;;;;;;;;5012639;28;20106;-70
2021/11/13 08:55:05;;;;;;;14.18;9.23;;;;;;;;;;5013007;28;20496;-71
2021/11/13 08:57:31;;;;;;;13.20;9.77;;;;;;;;;;5012810;28;20562;-70
2021/11/13 08:59:58;;;;;;;14.40;10.68;;;;;;;;;;5012379;28;20104;-70
2021/11/13 09:02:25;;;;;;;12.55;9.57;;;;;;;;;;5016983;28;20566;-70
2021/11/13 09:04:53;;;;;;;16.00;10.80;;;;;;;;;;5032439;28;20642;-70
2021/11/13 09:07:20;;;;;;;16.58;10.45;;;;;;;;;;5032418;28;20499;-70
2021/11/13 09:09:47;;;;;;;13.77;10.82;;;;;;;;;;5032332;28;20050;-69
2021/11/13 09:12:21;;;;;;;14.05;10.77;;;;;;;;;;5032260;28;20111;-69
2021/11/13 09:14:49;;;;;;;13.43;9.50;;;;;;;;;;5032285;28;20049;-70
2021/11/13 09:17:17;;;;;;;10.90;9.07;;;;;;;;;;5032279;28;20085;-69
2021/11/13 09:19:44;;;;;;;13.25;10.07;;;;;;;;;;5030844;28;20065;-70
2021/11/13 09:22:11;;;;;;;14.80;10.50;;;;;;;;;;5032084;28;20128;-70
2021/11/13 09:24:37;;;;;;;15.80;11.27;;;;;;;;;;5032048;28;20057;-69
2021/11/13 09:27:05;;;;;;;13.93;9.65;;;;;;;;;;5021729;28;20056;-69
2021/11/13 09:29:32;;;;;;;13.00;10.20;;;;;;;;;;5010614;28;20046;-69
2021/11/13 09:31:58;;;;;;;15.85;11.98;;;;;;;;;;5012078;28;20050;-69
2021/11/13 09:34:25;;;;;;;13.88;10.43;;;;;;;;;;5025765;28;20054;-69
2021/11/13 09:36:52;;;;;;;15.38;11.15;;;;;;;;;;5010749;28;20085;-69
2021/11/13 09:39:19;;;;;;;12.43;9.57;;;;;;;;;;5011844;28;20088;-69
2021/11/13 09:41:46;;;;;;;12.55;9.27;;;;;;;;;;5011894;28;20085;-69
2021/11/13 09:44:14;;;;;;;12.88;10.70;;;;;;;;;;5012176;28;20054;-69
2021/11/13 09:46:41;;;;;;;12.00;9.80;;;;;;;;;;5011258;28;20504;-71
2021/11/13 09:49:08;;;;;;;13.18;9.73;;;;;;;;;;5010570;28;20050;-70
2021/11/13 09:51:35;;;;;;;11.95;9.88;;;;;;;;;;5014382;28;20429;-72
2021/11/13 09:54:03;;;;;;;10.38;9.05;;;;;;;;;;5012020;28;20054;-69
2021/11/13 09:56:30;;;;;;;12.63;9.48;;;;;;;;;;5011839;28;20468;-68
2021/11/13 09:58:57;;;;;;;20.60;13.55;;;;;;;;;;5011929;28;20108;-68
2021/11/13 10:01:23;;;;;;;18.23;13.88;;;;;;;;;;5013680;28;20042;-71
2021/11/13 10:03:51;;;;;;;26.85;16.05;;;;;;;;;;5030391;28;20088;-70
2021/11/13 10:06:19;;;;;;;25.00;16.52;;;;;;;;;;5031588;28;20058;-69
2021/11/13 10:08:47;;;;;;;23.88;15.40;;;;;;;;;;5031462;28;20116;-69
2021/11/13 10:11:20;;;;;;;24.00;15.23;;;;;;;;;;5031509;28;20049;-69
2021/11/13 10:13:58;;;;;;;28.45;16.60;;;;;;;;;;5031501;28;20053;-69
2021/11/13 10:16:39;;;;;;;22.60;15.07;;;;;;;;;;5046774;28;20103;-69
2021/11/13 10:19:09;;;;;;;16.77;12.35;;;;;;;;;;5030222;28;20069;-71
2021/11/13 10:21:39;;;;;;;20.92;14.30;;;;;;;;;;5030849;28;20095;-71
2021/11/13 10:24:18;;;;;;;16.75;13.15;;;;;;;;;;5046457;28;20566;-69
2021/11/13 10:26:47;;;;;;;16.90;13.20;;;;;;;;;;5031238;28;20072;-70
2021/11/13 10:29:22;;;;;;;17.83;12.52;;;;;;;;;;5046540;28;20448;-69
2021/11/13 10:31:51;;;;;;;17.33;12.63;;;;;;;;;;5031274;28;20049;-70
2021/11/13 10:34:22;;;;;;;16.58;12.00;;;;;;;;;;5031121;28;20079;-69
2021/11/13 10:36:58;;;;;;;17.50;12.15;;;;;;;;;;5045904;28;20138;-70
2021/11/13 10:39:26;;;;;;;18.23;12.25;;;;;;;;;;5030103;28;20049;-69
2021/11/13 10:41:59;;;;;;;15.07;11.52;;;;;;;;;;5026695;28;20049;-68
2021/11/13 10:44:30;;;;;;;19.50;13.40;;;;;;;;;;5047247;28;20052;-68
2021/11/13 10:47:02;;;;;;;15.23;12.23;;;;;;;;;;5034448;28;20377;-74
2021/11/13 10:49:32;;;;;;;14.05;12.55;;;;;;;;;;5016846;28;20046;-72
2021/11/13 10:52:04;;;;;;;20.25;13.98;;;;;;;;;;5018339;28;20038;-70
2021/11/13 10:54:32;;;;;;;16.02;13.10;;;;;;;;;;5016061;28;20050;-69
2021/11/13 10:57:04;;;;;;;17.10;12.82;;;;;;;;;;5000826;28;20049;-70
2021/11/13 10:59:36;;;;;;;19.42;13.23;;;;;;;;;;5019778;28;20050;-71
2021/11/13 11:02:09;;;;;;;15.55;12.73;;;;;;;;;;5027716;28;20463;-69
2021/11/13 11:04:37;;;;;;;16.38;12.20;;;;;;;;;;5021066;28;20516;-71
2021/11/13 11:07:12;;;;;;;13.43;11.98;;;;;;;;;;5019324;28;20050;-71
2021/11/13 11:09:43;;;;;;;15.68;12.57;;;;;;;;;;5023973;28;20497;-73
2021/11/13 11:12:10;;;;;;;15.73;12.57;;;;;;;;;;5020818;28;20563;-71
2021/11/13 11:14:43;;;;;;;16.63;12.27;;;;;;;;;;5020268;28;20111;-71
2021/11/13 11:17:20;;;;;;;;;;;;;;;;;;5024411;28;20049;-71
2021/11/13 11:19:48;;;;;;;14.80;12.00;;;;;;;;;;5018847;28;19980;-72
2021/11/13 11:22:20;;;;;;;16.23;12.68;;;;;;;;;;5021751;28;20044;-72
2021/11/13 11:24:57;;;;;;;15.35;11.90;;;;;;;;;;5022363;28;20065;-71
2021/11/13 11:27:26;;;;;;;20.30;12.75;;;;;;;;;;5019543;28;20050;-73
2021/11/13 11:30:04;;;;;;;16.33;13.00;;;;;;;;;;5021702;28;20057;-72
2021/11/13 11:32:36;;;;;;;15.73;13.05;;;;;;;;;;5019422;28;20079;-72
2021/11/13 11:35:05;;;;;;;15.43;12.15;;;;;;;;;;5019185;28;20053;-71
2021/11/13 11:37:36;;;;;;;15.52;12.73;;;;;;;;;;5024128;28;20448;-71
2021/11/13 11:40:13;;;;;;;15.93;12.98;;;;;;;;;;5018240;28;20077;-70
2021/11/13 11:42:43;;;;;;;18.65;12.73;;;;;;;;;;5018100;28;20049;-70
2021/11/13 11:45:13;;;;;;;18.48;13.45;;;;;;;;;;5020567;28;20053;-73
2021/11/13 11:47:40;;;;;;;16.92;13.00;;;;;;;;;;5018507;28;20061;-71
2021/11/13 11:50:08;;;;;;;17.38;13.43;;;;;;;;;;5022285;28;20049;-74
2021/11/13 11:52:44;;;;;;;17.20;14.18;;;;;;;;;;5022080;28;20042;-74
2021/11/13 11:55:14;;;;;;;18.35;14.18;;;;;;;;;;5020489;28;20045;-71
2021/11/13 11:57:42;;;;;;;17.70;13.75;;;;;;;;;;5021289;28;20054;-73
2021/11/13 12:00:15;;;;;;;18.17;12.88;;;;;;;;;;5024470;28;20455;-76
2021/11/13 12:02:50;;;;;;;18.65;14.05;;;;;;;;;;5025230;28;20584;-79
2021/11/13 12:05:31;;;;;;;18.13;14.23;;;;;;;;;;5008274;28;20053;-74
2021/11/13 12:07:59;;;;;;;19.40;14.70;;;;;;;;;;5018265;28;20054;-74
2021/11/13 12:10:32;;;;;;;22.13;15.30;;;;;;;;;;5010567;28;20477;-72
2021/11/13 12:13:37;;;;;;;18.23;15.07;;;;;;;;;;5019891;28;20073;-71
2021/11/13 12:16:04;;;;;;;22.70;15.82;;;;;;;;;;4998062;28;20058;-72
2021/11/13 12:24:04;;;;;;;21.90;16.33;;;;;;;;;;5141721;22;20045;-79
2021/11/13 12:26:40;;;;;;;19.73;15.55;;;;;;;;;;5001109;28;20064;-79
2021/11/13 12:29:14;;;;;;;17.48;13.93;;;;;;;;;;5011863;28;20115;-80
2021/11/13 12:31:46;;;;;;;24.73;15.57;;;;;;;;;;5002190;28;20551;-81
2021/11/13 12:34:16;;;;;;;18.13;13.55;;;;;;;;;;4998006;28;20046;-81
2021/11/13 12:37:05;;;;;;;16.40;13.60;;;;;;;;;;4999352;28;20136;-76
2021/11/13 12:39:46;;;;;;;20.77;14.35;;;;;;;;;;5025889;28;20041;-80
2021/11/13 12:42:26;;;;;;;20.63;15.20;;;;;;;;;;5016305;28;20051;-79
2021/11/13 12:45:00;;;;;;;18.30;14.25;;;;;;;;;;5013899;28;20774;-80
2021/11/13 12:47:32;;;;;;;23.45;14.40;;;;;;;;;;5029493;28;20049;-81
2021/11/13 12:50:00;;;;;;;18.02;13.52;;;;;;;;;;5025492;28;20049;-80
2021/11/13 12:52:28;;;;;;;17.75;13.23;;;;;;;;;;5033480;28;20053;-80
2021/11/13 12:55:04;;;;;;;17.08;12.75;;;;;;;;;;5011326;28;20568;-80
2021/11/13 12:57:34;;;;;;;14.90;11.57;;;;;;;;;;5012735;28;20053;-82
2021/11/13 13:00:06;;;;;;;17.10;12.60;;;;;;;;;;5025804;28;20063;-81
2021/11/13 13:02:53;;;;;;;17.85;13.52;;;;;;;;;;5023971;28;20063;-81
2021/11/13 13:05:21;;;;;;;16.08;12.75;;;;;;;;;;5017393;28;20053;-81
2021/11/13 13:07:55;;;;;;;17.60;14.40;;;;;;;;;;5017611;28;20463;-81
2021/11/13 13:10:24;;;;;;;22.27;15.20;;;;;;;;;;5017822;28;20041;-81
2021/11/13 13:13:23;;;;;;;20.35;16.33;;;;;;;;;;5048042;28;20052;-82
2021/11/13 13:15:56;;;;;;;26.95;18.38;;;;;;;;;;4989273;28;20045;-81
2021/11/13 13:18:23;;;;;;;21.92;17.83;;;;;;;;;;5013641;28;20084;-81
2021/11/13 13:20:50;;;;;;;23.33;16.70;;;;;;;;;;5033504;28;20630;-81
2021/11/13 13:23:23;;;;;;;20.70;16.58;;;;;;;;;;5017047;28;20936;-82
2021/11/13 13:25:57;;;;;;;20.17;15.20;;;;;;;;;;5016020;28;20052;-81
2021/11/13 13:28:25;;;;;;;19.65;15.55;;;;;;;;;;4994520;28;20060;-80
2021/11/13 13:30:52;;;;;;;19.75;15.63;;;;;;;;;;5000583;28;20049;-77
2021/11/13 13:33:20;;;;;;;19.65;15.45;;;;;;;;;;5016521;28;20037;-80
2021/11/13 13:35:47;;;;;;;21.00;15.68;;;;;;;;;;5015144;28;20053;-80
2021/11/13 13:38:20;;;;;;;18.38;14.32;;;;;;;;;;5015922;28;20060;-80
2021/11/13 13:40:51;;;;;;;19.77;14.60;;;;;;;;;;4999240;28;20055;-80
2021/11/13 13:43:42;;;;;;;19.00;14.68;;;;;;;;;;5015781;28;20048;-80
2021/11/13 13:46:12;;;;;;;20.27;15.00;;;;;;;;;;5031832;28;20061;-80
2021/11/13 13:48:55;;;;;;;18.17;14.25;;;;;;;;;;5009487;28;20505;-80
2021/11/13 13:51:32;;;;;;;19.60;14.88;;;;;;;;;;5000949;28;20131;-81
2021/11/13 13:54:06;;;;;;;21.20;16.77;;;;;;;;;;5016913;28;20531;-80
2021/11/13 13:56:34;;;;;;;25.88;17.83;;;;;;;;;;5017343;28;20110;-80
2021/11/13 13:59:04;;;;;;;27.65;18.40;;;;;;;;;;5049468;28;20054;-77
2021/11/13 14:01:32;;;;;;;21.10;17.15;;;;;;;;;;4999403;28;20432;-80
2021/11/13 14:04:11;;;;;;;24.83;19.30;;;;;;;;;;5013891;28;20052;-80
2021/11/13 14:06:38;;;;;;;24.50;18.02;;;;;;;;;;5007210;28;20341;-80
2021/11/13 14:09:06;;;;;;;23.83;18.48;;;;;;;;;;5032423;28;20523;-80
2021/11/13 14:11:33;;;;;;;25.58;18.45;;;;;;;;;;5008024;28;20100;-81
2021/11/13 14:14:00;;;;;;;24.30;18.95;;;;;;;;;;5016063;28;20061;-80
2021/11/13 14:16:37;;;;;;;24.98;18.08;;;;;;;;;;5032708;28;20072;-80
2021/11/13 14:19:11;;;;;;;22.58;16.17;;;;;;;;;;4991826;28;20053;-80
2021/11/13 14:21:38;;;;;;;20.48;15.93;;;;;;;;;;5015841;28;20056;-81
2021/11/13 14:24:15;;;;;;;21.52;16.20;;;;;;;;;;4999927;28;20512;-80
2021/11/13 14:26:43;;;;;;;21.42;17.40;;;;;;;;;;5000028;28;20045;-80
2021/11/13 14:29:10;;;;;;;22.13;16.60;;;;;;;;;;4999995;28;20053;-81
2021/11/13 14:31:39;;;;;;;23.15;19.13;;;;;;;;;;5005782;28;20505;-80
2021/11/13 14:34:12;;;;;;;23.13;18.50;;;;;;;;;;5035156;28;20107;-81
2021/11/13 14:37:03;;;;;;;30.20;22.30;;;;;;;;;;5033114;28;20060;-80
2021/11/13 14:39:32;;;;;;;26.40;20.00;;;;;;;;;;5013537;28;20044;-80
2021/11/13 14:42:06;;;;;;;22.10;17.67;;;;;;;;;;5017421;28;20075;-78
2021/11/13 14:44:41;;;;;;;21.88;17.95;;;;;;;;;;5033732;28;20049;-78
2021/11/13 14:47:11;;;;;;;21.95;17.58;;;;;;;;;;5047439;28;20053;-78
2021/11/13 14:49:42;;;;;;;25.98;19.15;;;;;;;;;;5014694;28;20049;-77
2021/11/13 14:52:16;;;;;;;22.70;18.20;;;;;;;;;;4998764;28;20103;-78
2021/11/13 14:55:01;;;;;;;23.35;19.88;;;;;;;;;;5001249;28;20048;-77
2021/11/13 14:57:32;;;;;;;25.50;19.42;;;;;;;;;;5022065;28;20080;-77
2021/11/13 14:59:59;;;;;;;26.23;19.25;;;;;;;;;;5017528;28;20057;-78
2021/11/13 15:02:27;;;;;;;24.35;19.45;;;;;;;;;;5023418;28;20037;-77
2021/11/13 15:04:55;;;;;;;24.35;18.70;;;;;;;;;;5032093;28;20041;-77
2021/11/13 15:07:23;;;;;;;24.45;20.10;;;;;;;;;;5009378;28;20053;-78
2021/11/13 15:09:55;;;;;;;23.67;18.40;;;;;;;;;;5007630;28;20416;-78
2021/11/13 15:12:24;;;;;;;24.42;19.95;;;;;;;;;;5033236;28;20052;-79
2021/11/13 15:14:51;;;;;;;26.60;20.45;;;;;;;;;;4999971;28;20068;-78
2021/11/13 15:17:26;;;;;;;25.58;18.55;;;;;;;;;;5024723;28;20406;-77
2021/11/13 15:19:56;;;;;;;24.10;18.65;;;;;;;;;;5033790;28;20048;-78
2021/11/13 15:22:25;;;;;;;23.65;19.05;;;;;;;;;;4997922;28;20056;-79
2021/11/13 15:25:23;;;;;;;26.60;19.98;;;;;;;;;;5028446;28;20048;-79
2021/11/13 15:28:06;;;;;;;23.08;18.70;;;;;;;;;;5018234;28;20059;-79
2021/11/13 15:30:35;;;;;;;28.17;20.93;;;;;;;;;;4997606;28;20060;-79
2021/11/13 15:33:02;;;;;;;28.02;20.95;;;;;;;;;;5015201;28;20045;-80
2021/11/13 15:35:29;;;;;;;32.83;20.80;;;;;;;;;;5001654;28;20047;-79
2021/11/13 15:37:56;;;;;;;24.55;19.92;;;;;;;;;;5018580;28;20056;-79
2021/11/13 15:40:28;;;;;;;26.73;20.55;;;;;;;;;;5032827;28;20052;-78
2021/11/13 15:42:59;;;;;;;24.00;20.27;;;;;;;;;;5024133;28;20045;-78
2021/11/13 15:45:29;;;;;;;26.58;20.27;;;;;;;;;;5033226;28;20048;-79
2021/11/13 15:48:12;;;;;;;25.98;19.63;;;;;;;;;;5001347;28;20048;-78
2021/11/13 15:50:58;;;;;;;;;;;;;;;;;;5039161;28;20049;-81
2021/11/13 15:53:40;;;;;;;23.90;19.17;;;;;;;;;;5049167;28;19927;-78